createdAt,value
2023-10-26T00:02:17.526Z,98054.47
2023-10-26T00:04:44.452Z,98057.88
2023-10-26T00:07:11.313Z,98049.25
2023-10-26T00:09:37.973Z,98044.06
2023-10-26T00:12:04.975Z,98048.31
2023-10-26T00:14:31.720Z,98045.72
2023-10-26T00:16:58.403Z,98043.09
2023-10-26T00:19:25.125Z,98043.94
2023-10-26T00:21:54.089Z,98037.06
2023-10-26T00:24:20.662Z,98029.31
2023-10-26T00:26:49.213Z,98032.72
2023-10-26T00:29:16.716Z,98041.28
2023-10-26T00:31:44.256Z,98034.38
2023-10-26T00:34:11.921Z,98034.34
2023-10-26T00:36:39.577Z,98035.16
2023-10-26T00:39:07.153Z,98032.53
2023-10-26T00:41:34.766Z,98027.38
2023-10-26T00:44:01.979Z,98030.78
2023-10-26T00:46:29.270Z,98032.44
2023-10-26T00:48:57.385Z,98029.88
2023-10-26T00:51:25.929Z,98022.13
2023-10-26T00:53:54.585Z,98022.94
2023-10-26T00:56:23.778Z,98026.34
2023-10-26T00:58:51.214Z,98018.66
2023-10-26T01:01:19.681Z,98021.19
2023-10-26T01:03:48.403Z,98005.72
2023-10-26T01:06:15.159Z,98014.25
2023-10-26T01:08:41.959Z,98003.94
2023-10-26T01:11:09.012Z,97999.66
2023-10-26T01:13:35.796Z,97993.59
2023-10-26T01:16:05.644Z,97988.44
2023-10-26T01:18:32.680Z,97979.81
2023-10-26T01:20:59.758Z,97975.47
2023-10-26T01:23:26.436Z,97988.31
2023-10-26T01:25:55.960Z,97989.97
2023-10-26T01:28:24.490Z,97973.59
2023-10-26T01:30:51.395Z,97974.47
2023-10-26T01:33:18.152Z,97979.50
2023-10-26T01:35:47.109Z,97977.69
2023-10-26T01:38:14.890Z,97975.03
2023-10-26T01:40:41.762Z,97971.53
2023-10-26T01:43:08.375Z,97966.31
2023-10-26T01:45:35.457Z,97961.13
2023-10-26T01:48:04.549Z,97968.75
2023-10-26T01:50:32.500Z,97970.47
2023-10-26T01:52:59.156Z,97968.69
2023-10-26T01:55:25.780Z,97960.06
2023-10-26T01:57:52.467Z,97961.78
2023-10-26T02:00:19.557Z,97953.16
2023-10-26T02:02:48.414Z,97954.81
2023-10-26T02:05:15.315Z,97937.59
2023-10-26T02:07:41.996Z,97940.13
2023-10-26T02:10:09.409Z,97934.06
2023-10-26T02:12:35.983Z,97936.63
2023-10-26T02:15:02.615Z,97935.75
2023-10-26T02:17:30.290Z,97936.56
2023-10-26T02:19:57.152Z,97933.97
2023-10-26T02:22:23.899Z,97914.13
2023-10-26T02:24:50.490Z,97920.16
2023-10-26T02:27:17.236Z,97911.56
2023-10-26T02:29:43.916Z,97911.56
2023-10-26T02:32:10.563Z,97902.16
2023-10-26T02:34:37.369Z,97892.72
2023-10-26T02:37:04.110Z,97896.16
2023-10-26T02:39:30.686Z,97892.72
2023-10-26T02:41:57.433Z,97880.63
2023-10-26T02:44:24.075Z,97883.16
2023-10-26T02:46:50.867Z,97878.88
2023-10-26T02:49:17.539Z,97877.94
2023-10-26T02:51:44.180Z,97879.59
2023-10-26T02:54:10.823Z,97871.84
2023-10-26T02:56:37.438Z,97869.22
2023-10-26T02:59:05.026Z,97874.38
2023-10-26T03:01:34.928Z,97865.72
2023-10-26T03:04:04.037Z,97863.97
2023-10-26T03:06:37.178Z,97863.13
2023-10-26T03:09:04.496Z,97860.50
2023-10-26T03:11:31.200Z,97851.03
2023-10-26T03:13:57.826Z,97851.84
2023-10-26T03:16:24.499Z,97846.72
2023-10-26T03:18:51.092Z,97832.97
2023-10-26T03:21:20.338Z,97835.50
2023-10-26T03:23:53.810Z,97829.44
2023-10-26T03:26:21.486Z,97825.06
2023-10-26T03:28:51.884Z,97818.19
2023-10-26T03:31:18.673Z,97817.28
2023-10-26T03:33:45.928Z,97811.22
2023-10-26T03:36:15.888Z,97811.19
2023-10-26T03:38:43.140Z,97812.91
2023-10-26T03:41:10.009Z,97812.00
2023-10-26T03:43:37.136Z,97809.34
2023-10-26T03:46:06.044Z,97809.13
2023-10-26T03:48:33.657Z,97805.66
2023-10-26T03:51:00.480Z,97807.28
2023-10-26T03:53:27.869Z,97799.41
2023-10-26T03:55:56.627Z,97796.75
2023-10-26T03:58:23.261Z,97805.25
2023-10-26T04:00:50.377Z,97798.28
2023-10-26T04:03:17.066Z,97803.38
2023-10-26T04:05:43.819Z,97803.28
2023-10-26T04:08:10.988Z,97799.69
2023-10-26T04:10:38.319Z,97787.56
2023-10-26T04:13:05.450Z,97794.31
2023-10-26T04:15:32.068Z,97785.66
2023-10-26T04:17:59.631Z,97797.63
2023-10-26T04:20:26.278Z,97786.41
2023-10-26T04:22:53.524Z,97788.88
2023-10-26T04:25:22.615Z,97786.25
2023-10-26T04:27:49.208Z,97781.06
2023-10-26T04:30:16.073Z,97782.72
2023-10-26T04:32:43.703Z,97777.47
2023-10-26T04:35:11.196Z,97781.75
2023-10-26T04:37:38.802Z,97779.09
2023-10-26T04:40:07.170Z,97769.56
2023-10-26T04:42:33.856Z,97773.81
2023-10-26T04:45:00.712Z,97772.09
2023-10-26T04:47:27.425Z,97760.91
2023-10-26T04:49:54.078Z,97763.47
2023-10-26T04:52:21.697Z,97766.16
2023-10-26T04:54:48.799Z,97760.91
2023-10-26T04:57:16.088Z,97761.72
2023-10-26T04:59:42.734Z,97765.09
2023-10-26T05:02:09.566Z,97763.31
2023-10-26T05:04:36.179Z,97765.06
2023-10-26T05:07:04.013Z,97759.84
2023-10-26T05:09:31.831Z,97761.56
2023-10-26T05:11:58.513Z,97756.47
2023-10-26T05:14:25.137Z,97759.00
2023-10-26T05:16:52.341Z,97756.34
2023-10-26T05:19:19.038Z,97758.91
2023-10-26T05:21:45.933Z,97758.81
2023-10-26T05:24:12.515Z,97759.63
2023-10-26T05:26:39.156Z,97753.63
2023-10-26T05:29:05.807Z,97754.50
2023-10-26T05:31:32.434Z,97746.75
2023-10-26T05:33:59.145Z,97743.31
2023-10-26T05:36:25.793Z,97742.41
2023-10-26T05:38:52.443Z,97739.72
2023-10-26T05:41:19.197Z,97738.75
2023-10-26T05:43:45.815Z,97734.41
2023-10-26T05:46:13.045Z,97733.50
2023-10-26T05:48:39.850Z,97728.25
2023-10-26T05:51:06.861Z,97722.25
2023-10-26T05:53:33.481Z,97726.47
2023-10-26T05:56:00.267Z,97719.44
2023-10-26T05:58:27.641Z,97722.88
2023-10-26T06:00:54.433Z,97718.53
2023-10-26T06:03:21.159Z,97721.06
2023-10-26T06:05:48.876Z,97710.59
2023-10-26T06:08:15.606Z,97710.53
2023-10-26T06:10:42.798Z,97705.31
2023-10-26T06:13:09.451Z,97706.94
2023-10-26T06:15:36.790Z,97702.56
2023-10-26T06:18:03.982Z,97698.19
2023-10-26T06:20:30.725Z,97702.47
2023-10-26T06:22:57.646Z,97703.25
2023-10-26T06:25:26.551Z,97697.16
2023-10-26T06:27:53.314Z,97699.66
2023-10-26T06:30:20.044Z,97698.78
2023-10-26T06:32:46.871Z,97700.44
2023-10-26T06:35:13.707Z,97700.44
2023-10-26T06:37:40.362Z,97695.28
2023-10-26T06:40:08.290Z,97698.63
2023-10-26T06:42:35.025Z,97706.44
2023-10-26T06:45:01.836Z,97693.47
2023-10-26T06:47:28.467Z,97700.34
2023-10-26T06:49:55.114Z,97695.19
2023-10-26T06:52:22.155Z,97697.69
2023-10-26T06:54:49.358Z,97689.09
2023-10-26T06:57:16.599Z,97691.56
2023-10-26T06:59:43.664Z,97685.66
2023-10-26T07:02:12.370Z,97695.03
2023-10-26T07:04:39.426Z,97691.56
2023-10-26T07:07:06.261Z,97689.00
2023-10-26T07:09:32.907Z,97693.25
2023-10-26T07:11:59.699Z,97691.56
2023-10-26T07:14:27.180Z,97691.53
2023-10-26T07:16:53.816Z,97693.16
2023-10-26T07:19:20.486Z,97690.56
2023-10-26T07:21:47.271Z,97687.97
2023-10-26T07:24:13.893Z,97699.09
2023-10-26T07:26:40.459Z,97693.03
2023-10-26T07:29:07.704Z,97695.63
2023-10-26T07:31:34.392Z,97696.41
2023-10-26T07:34:01.008Z,97693.69
2023-10-26T07:36:31.662Z,97693.59
2023-10-26T07:39:47.151Z,97694.38
2023-10-26T07:42:07.222Z,97686.50
2023-10-26T07:44:34.820Z,97690.69
2023-10-26T07:47:01.484Z,97700.94
2023-10-26T07:49:28.286Z,97699.06
2023-10-26T07:51:54.989Z,97702.44
2023-10-26T07:54:21.642Z,97697.16
2023-10-26T07:56:48.451Z,97696.19
2023-10-26T07:59:15.211Z,97697.81
2023-10-26T08:01:41.944Z,97689.94
2023-10-26T08:04:09.130Z,97688.06
2023-10-26T08:06:36.853Z,97682.84
2023-10-26T08:09:03.739Z,97679.22
2023-10-26T08:11:30.447Z,97672.28
2023-10-26T08:13:57.148Z,97675.50
2023-10-26T08:16:40.517Z,97680.44
2023-10-26T08:19:10.812Z,97682.78
2023-10-26T08:21:37.612Z,97678.28
2023-10-26T08:24:04.489Z,97676.38
2023-10-26T08:26:31.044Z,97682.34
2023-10-26T08:29:11.981Z,97679.59
2023-10-26T08:31:44.615Z,97677.81
2023-10-26T08:34:12.391Z,97665.63
2023-10-26T08:36:42.182Z,97660.44
2023-10-26T08:39:11.434Z,97670.69
2023-10-26T08:41:38.135Z,97657.69
2023-10-26T08:44:05.226Z,97658.41
2023-10-26T08:46:32.747Z,97657.44
2023-10-26T08:49:02.969Z,97670.16
2023-10-26T08:51:29.760Z,97666.94
2023-10-26T08:53:58.485Z,97663.06
2023-10-26T08:56:25.331Z,97657.63
2023-10-26T08:58:57.904Z,97665.94
2023-10-26T09:01:25.509Z,97660.47
2023-10-26T09:03:52.619Z,97663.69
2023-10-26T09:06:19.345Z,97663.38
2023-10-26T09:09:01.753Z,97665.91
2023-10-26T09:11:28.901Z,97668.25
2023-10-26T09:14:12.348Z,97661.91
2023-10-26T09:16:39.313Z,97667.81
2023-10-26T09:19:06.209Z,97666.72
2023-10-26T09:21:50.494Z,97669.25
2023-10-26T09:24:20.612Z,97670.66
2023-10-26T09:26:47.061Z,97674.28
2023-10-26T09:29:13.686Z,97663.50
2023-10-26T09:31:56.275Z,97663.25
2023-10-26T09:34:25.256Z,97663.72
2023-10-26T09:37:01.241Z,97660.28
2023-10-26T09:39:31.775Z,97661.75
2023-10-26T09:41:59.398Z,97658.09
2023-10-26T09:44:26.532Z,97660.56
2023-10-26T09:46:53.741Z,97659.44
2023-10-26T09:49:21.687Z,97653.13
2023-10-26T09:51:48.357Z,97652.00
2023-10-26T09:54:16.431Z,97649.81
2023-10-26T09:56:49.109Z,97649.69
2023-10-26T09:59:16.077Z,97652.28
2023-10-26T10:01:42.916Z,97648.75
2023-10-26T10:04:11.191Z,97653.16
2023-10-26T10:06:55.828Z,97658.53
2023-10-26T10:09:24.383Z,97657.47
2023-10-26T10:23:00.717Z,97670.56
2023-10-26T10:28:40.995Z,97668.72
2023-10-26T10:31:07.850Z,97663.28
2023-10-26T10:33:35.762Z,97672.47
2023-10-26T10:38:40.734Z,97669.22
2023-10-26T10:41:09.704Z,97670.75
2023-10-26T10:43:41.866Z,97671.59
2023-10-26T10:46:14.759Z,97675.94
2023-10-26T10:48:59.439Z,97669.91
2023-10-26T10:54:22.340Z,97666.25
2023-10-26T10:56:53.551Z,97673.13
2023-10-26T10:59:30.741Z,97672.28
2023-10-26T11:02:14.589Z,97673.13
2023-10-26T11:05:09.652Z,97666.94
2023-10-26T11:07:43.129Z,97666.81
2023-10-26T11:10:10.169Z,97664.13
2023-10-26T11:12:36.827Z,97665.81
2023-10-26T11:15:05.176Z,97651.91
2023-10-26T11:17:32.821Z,97649.16
2023-10-26T11:19:59.530Z,97648.22
2023-10-26T11:22:26.125Z,97646.28
2023-10-26T11:24:52.876Z,97648.53
2023-10-26T11:27:22.238Z,97651.66
2023-10-26T11:30:06.638Z,97652.38
2023-10-26T11:32:33.902Z,97643.50
2023-10-26T11:37:47.005Z,97638.31
2023-10-26T11:40:15.578Z,97644.44
2023-10-26T11:43:00.773Z,97638.59
2023-10-26T11:45:29.089Z,97629.84
2023-10-26T11:47:58.015Z,97635.78
2023-10-26T11:53:06.292Z,97620.13
2023-10-26T11:55:34.295Z,97628.50
2023-10-26T11:58:02.454Z,97624.97
2023-10-26T12:00:31.269Z,97622.31
2023-10-26T12:02:59.643Z,97624.81
2023-10-26T12:05:27.456Z,97622.22
2023-10-26T12:07:54.915Z,97615.94
2023-10-26T12:10:24.026Z,97612.09
2023-10-26T12:12:51.565Z,97618.50
2023-10-26T12:15:19.454Z,97614.47
2023-10-26T12:17:46.903Z,97614.16
2023-10-26T12:20:15.063Z,97609.56
2023-10-26T12:22:42.379Z,97607.75
2023-10-26T12:25:09.620Z,97608.31
2023-10-26T12:28:21.024Z,97603.13
2023-10-26T12:30:23.108Z,97607.38
2023-10-26T12:32:49.844Z,97599.59
2023-10-26T12:35:16.944Z,97598.69
2023-10-26T12:37:43.628Z,97592.56
2023-10-26T12:40:10.550Z,97606.28
2023-10-26T12:42:37.309Z,97601.19
2023-10-26T12:45:04.616Z,97596.91
2023-10-26T12:47:31.335Z,97592.41
2023-10-26T12:49:57.954Z,97591.63
2023-10-26T12:52:24.655Z,97595.28
2023-10-26T12:54:51.288Z,97593.88
2023-10-26T12:57:17.873Z,97595.19
2023-10-26T12:59:44.519Z,97591.31
2023-10-26T13:02:11.129Z,97590.94
2023-10-26T13:04:37.970Z,97588.94
2023-10-26T13:07:04.875Z,97586.91
2023-10-26T13:09:31.671Z,97583.75
2023-10-26T13:11:58.370Z,97599.59
2023-10-26T13:14:24.964Z,97587.97
2023-10-26T13:16:58.325Z,97588.81
2023-10-26T13:19:26.213Z,97594.81
2023-10-26T13:21:52.990Z,97598.13
2023-10-26T13:24:19.733Z,97594.50
2023-10-26T13:26:46.470Z,97588.09
2023-10-26T13:29:13.494Z,97585.22
2023-10-26T13:31:40.257Z,97589.59
2023-10-26T13:34:08.736Z,97587.00
2023-10-26T13:36:35.631Z,97584.38
2023-10-26T13:39:05.453Z,97570.63
2023-10-26T13:41:32.502Z,97571.34
2023-10-26T13:44:00.204Z,97567.63
2023-10-26T13:46:29.396Z,97568.47
2023-10-26T13:48:56.245Z,97567.63
2023-10-26T13:51:23.126Z,97568.75
2023-10-26T13:53:49.756Z,97569.03
2023-10-26T13:56:16.587Z,97565.75
2023-10-26T13:58:43.132Z,97568.63
2023-10-26T14:01:13.804Z,97572.25
2023-10-26T14:03:40.926Z,97569.75
2023-10-26T14:06:09.143Z,97566.28
2023-10-26T14:08:36.208Z,97562.84
2023-10-26T14:11:03.726Z,97556.81
2023-10-26T14:13:30.418Z,97562.09
2023-10-26T14:15:57.042Z,97556.97
2023-10-26T14:18:23.870Z,97562.38
2023-10-26T14:20:50.787Z,97567.56
2023-10-26T14:23:17.354Z,97565.13
2023-10-26T14:25:43.963Z,97561.88
2023-10-26T14:28:10.494Z,97558.72
2023-10-26T14:30:37.279Z,97559.72
2023-10-26T14:33:03.972Z,97552.09
2023-10-26T14:35:30.582Z,97548.00
2023-10-26T14:37:59.973Z,97549.84
2023-10-26T14:40:27.049Z,97546.47
2023-10-26T14:42:55.135Z,97545.84
2023-10-26T14:45:24.874Z,97543.31
2023-10-26T14:47:51.569Z,97541.81
2023-10-26T14:50:18.370Z,97548.84
2023-10-26T14:52:44.998Z,97541.97
2023-10-26T14:55:11.655Z,97538.66
2023-10-26T14:57:38.353Z,97540.47
2023-10-26T15:00:05.462Z,97540.56
2023-10-26T15:02:32.091Z,97538.97
2023-10-26T15:04:58.748Z,97544.19
2023-10-26T15:07:25.658Z,97540.84
2023-10-26T15:10:24.374Z,97548.75
2023-10-26T15:12:39.448Z,97544.53
2023-10-26T15:15:06.736Z,97541.19
2023-10-26T15:17:33.603Z,97548.22
2023-10-26T15:20:00.343Z,97550.94
2023-10-26T15:22:27.266Z,97557.03
2023-10-26T15:24:53.980Z,97551.94
2023-10-26T15:27:20.866Z,97551.19
2023-10-26T15:29:47.639Z,97554.72
2023-10-26T15:32:19.148Z,97557.50
2023-10-26T15:34:47.512Z,97558.38
2023-10-26T15:37:15.086Z,97557.66
2023-10-26T15:39:42.996Z,97556.97
2023-10-26T15:42:10.213Z,97560.50
2023-10-26T15:44:37.581Z,97559.84
2023-10-26T15:47:05.367Z,97560.84
2023-10-26T15:49:36.233Z,97559.22
2023-10-26T15:52:04.194Z,97560.16
2023-10-26T15:54:31.025Z,97554.34
2023-10-26T15:56:59.215Z,97567.53
2023-10-26T15:59:26.084Z,97565.00
2023-10-26T16:01:52.893Z,97562.63
2023-10-26T16:04:19.694Z,97560.31
2023-10-26T16:06:47.988Z,97559.63
2023-10-26T16:09:15.061Z,97563.47
2023-10-26T16:11:41.946Z,97565.47
2023-10-26T16:14:08.803Z,97565.63
2023-10-26T16:16:35.593Z,97559.00
2023-10-26T16:19:02.383Z,97554.06
2023-10-26T16:21:29.080Z,97558.56
2023-10-26T16:23:55.660Z,97567.38
2023-10-26T16:26:22.812Z,97561.41
2023-10-26T16:28:50.717Z,97565.09
2023-10-26T16:31:17.928Z,97568.03
2023-10-26T16:33:46.038Z,97574.38
2023-10-26T16:36:12.942Z,97572.94
2023-10-26T16:38:39.728Z,97571.56
2023-10-26T16:41:06.556Z,97575.25
2023-10-26T16:43:33.254Z,97577.38
2023-10-26T16:46:00.712Z,97579.34
2023-10-26T16:48:27.988Z,97578.75
2023-10-26T16:50:56.421Z,97578.97
2023-10-26T16:53:31.314Z,97581.81
2023-10-26T16:56:01.614Z,97572.50
2023-10-26T16:58:28.999Z,97576.19
2023-10-26T17:00:58.971Z,97571.88
2023-10-26T17:03:26.732Z,97574.53
2023-10-26T17:05:53.395Z,97572.94
2023-10-26T17:08:20.942Z,97577.38
2023-10-26T17:10:49.640Z,97573.16
2023-10-26T17:13:17.141Z,97583.53
2023-10-26T17:15:44.365Z,97577.59
2023-10-26T17:18:11.190Z,97586.38
2023-10-26T17:20:38.792Z,97586.38
2023-10-26T17:23:05.562Z,97586.44
2023-10-26T17:25:36.028Z,97587.38
2023-10-26T17:28:03.213Z,97583.91
2023-10-26T17:30:30.574Z,97582.28
2023-10-26T17:32:57.544Z,97577.25
2023-10-26T17:35:24.405Z,97573.97
2023-10-26T17:37:52.690Z,97572.34
2023-10-26T17:40:19.549Z,97575.19
2023-10-26T17:42:46.240Z,97575.31
2023-10-26T17:45:12.868Z,97565.16
2023-10-26T17:47:39.598Z,97566.16
2023-10-26T17:50:06.672Z,97570.56
2023-10-26T17:52:33.290Z,97572.53
2023-10-26T17:55:03.656Z,97569.47
2023-10-26T17:57:31.696Z,97574.31
2023-10-26T17:59:58.484Z,97580.69
2023-10-26T18:02:25.177Z,97580.06
2023-10-26T18:04:52.053Z,97582.81
2023-10-26T18:07:18.777Z,97581.13
2023-10-26T18:09:45.694Z,97579.47
2023-10-26T18:12:15.797Z,97579.47
2023-10-26T18:14:42.670Z,97575.03
2023-10-26T18:17:09.402Z,97574.97
2023-10-26T18:19:36.127Z,97578.31
2023-10-26T18:22:02.991Z,97575.66
2023-10-26T18:24:32.834Z,97576.44
2023-10-26T18:26:59.877Z,97580.69
2023-10-26T18:29:28.019Z,97577.19
2023-10-26T18:31:57.107Z,97572.00
2023-10-26T18:34:23.983Z,97571.19
2023-10-26T18:36:51.110Z,97579.88
2023-10-26T18:39:17.742Z,97577.34
2023-10-26T18:41:45.839Z,97568.09
2023-10-26T18:44:12.663Z,97567.38
2023-10-26T18:46:41.613Z,97571.94
2023-10-26T18:49:10.164Z,97571.16
2023-10-26T18:51:40.581Z,97566.16
2023-10-26T18:54:08.223Z,97562.00
2023-10-26T18:56:34.971Z,97559.63
2023-10-26T18:59:02.503Z,97559.69
2023-10-26T19:01:30.099Z,97559.88
2023-10-26T19:04:02.917Z,97558.34
2023-10-26T19:06:31.820Z,97557.66
2023-10-26T19:09:00.338Z,97550.94
2023-10-26T19:11:27.215Z,97551.97
2023-10-26T19:13:54.415Z,97550.41
2023-10-26T19:16:21.680Z,97555.75
2023-10-26T19:18:48.480Z,97549.84
2023-10-26T19:21:15.310Z,97560.31
2023-10-26T19:23:42.808Z,97561.31
2023-10-26T19:26:11.089Z,97563.19
2023-10-26T19:28:37.905Z,97563.38
2023-10-26T19:31:05.691Z,97552.41
2023-10-26T19:33:32.651Z,97554.25
2023-10-26T19:35:59.379Z,97561.28
2023-10-26T19:38:26.165Z,97565.72
2023-10-26T19:40:53.269Z,97556.34
2023-10-26T19:43:20.333Z,97564.16
2023-10-26T19:45:46.976Z,97553.94
2023-10-26T19:48:15.188Z,97558.34
2023-10-26T19:50:42.085Z,97560.06
2023-10-26T19:53:08.712Z,97556.66
2023-10-26T19:55:35.336Z,97560.22
2023-10-26T19:58:02.118Z,97551.66
2023-10-26T20:00:30.055Z,97554.31
2023-10-26T20:02:56.819Z,97557.81
2023-10-26T20:05:23.526Z,97553.56
2023-10-26T20:07:50.134Z,97557.94
2023-10-26T20:10:16.871Z,97560.59
2023-10-26T20:12:43.774Z,97560.69
2023-10-26T20:15:12.259Z,97559.09
2023-10-26T20:17:38.924Z,97561.84
2023-10-26T20:20:07.885Z,97556.91
2023-10-26T20:22:35.145Z,97560.50
2023-10-26T20:25:02.340Z,97561.53
2023-10-26T20:27:29.037Z,97567.75
2023-10-26T20:29:55.972Z,97569.53
2023-10-26T20:32:22.829Z,97566.25
2023-10-26T20:34:49.586Z,97564.59
2023-10-26T20:37:16.386Z,97557.75
2023-10-26T20:39:44.690Z,97561.25
2023-10-26T20:42:11.648Z,97564.75
2023-10-26T20:44:38.597Z,97565.50
2023-10-26T20:47:06.354Z,97556.03
2023-10-26T20:49:33.113Z,97557.75
2023-10-26T20:51:59.765Z,97570.75
2023-10-26T20:54:26.398Z,97564.81
2023-10-26T20:56:53.078Z,97565.00
2023-10-26T20:59:19.858Z,97561.69
2023-10-26T21:01:46.485Z,97566.13
2023-10-26T21:04:13.296Z,97571.34
2023-10-26T21:06:40.606Z,97570.66
2023-10-26T21:09:07.219Z,97564.69
2023-10-26T21:11:33.931Z,97563.91
2023-10-26T21:14:00.666Z,97558.84
2023-10-26T21:16:27.376Z,97565.81
2023-10-26T21:18:54.071Z,97565.97
2023-10-26T21:21:20.748Z,97567.75
2023-10-26T21:23:47.461Z,97573.03
2023-10-26T21:26:14.078Z,97567.91
2023-10-26T21:28:42.783Z,97567.97
2023-10-26T21:31:09.928Z,97569.00
2023-10-26T21:33:36.903Z,97563.06
2023-10-26T21:36:06.214Z,97578.66
2023-10-26T21:38:32.918Z,97573.63
2023-10-26T21:41:05.071Z,97573.72
2023-10-26T21:43:32.967Z,97573.88
2023-10-26T21:46:04.175Z,97567.00
2023-10-26T21:48:30.972Z,97566.22
2023-10-26T21:50:57.798Z,97566.22
2023-10-26T21:53:24.484Z,97570.59
2023-10-26T21:55:51.509Z,97570.59
2023-10-26T21:58:18.950Z,97573.22
2023-10-26T22:00:46.117Z,97567.34
2023-10-26T22:03:13.001Z,97569.13
2023-10-26T22:05:39.711Z,97566.75
2023-10-26T22:08:06.899Z,97574.53
2023-10-26T22:10:33.597Z,97569.47
2023-10-26T22:13:00.339Z,97568.69
2023-10-26T22:15:27.145Z,97575.72
2023-10-26T22:17:53.886Z,97571.56
2023-10-26T22:20:20.892Z,97572.50
2023-10-26T22:22:47.585Z,97575.19
2023-10-26T22:25:14.381Z,97569.31
2023-10-26T22:27:41.490Z,97580.56
2023-10-26T22:30:08.705Z,97577.22
2023-10-26T22:32:35.397Z,97578.19
2023-10-26T22:35:02.268Z,97575.66
2023-10-26T22:37:29.074Z,97576.66
2023-10-26T22:39:55.695Z,97572.38
2023-10-26T22:42:22.373Z,97574.19
2023-10-26T22:44:50.609Z,97569.00
2023-10-26T22:47:17.183Z,97570.78
2023-10-26T22:49:44.533Z,97570.78
2023-10-26T22:52:11.534Z,97579.34
2023-10-26T22:54:38.180Z,97576.81
2023-10-26T22:57:05.008Z,97567.34
2023-10-26T22:59:31.642Z,97575.06
2023-10-26T23:01:58.282Z,97571.59
2023-10-26T23:04:26.230Z,97568.09
2023-10-26T23:06:53.051Z,97575.84
2023-10-26T23:09:19.887Z,97569.78
2023-10-26T23:11:46.557Z,97567.19
2023-10-26T23:14:13.271Z,97561.22
2023-10-26T23:16:40.340Z,97564.69
2023-10-26T23:19:07.299Z,97557.00
2023-10-26T23:21:34.009Z,97559.66
2023-10-26T23:24:03.352Z,97559.69
2023-10-26T23:26:33.182Z,97557.13
2023-10-26T23:29:02.737Z,97558.88
2023-10-26T23:31:29.480Z,97565.00
2023-10-26T23:33:56.247Z,97562.47
2023-10-26T23:36:23.003Z,97569.44
2023-10-26T23:38:49.687Z,97562.72
2023-10-26T23:41:16.845Z,97566.28
2023-10-26T23:43:43.606Z,97561.19
2023-10-26T23:46:10.342Z,97557.81
2023-10-26T23:48:37.891Z,97560.44
2023-10-26T23:51:04.792Z,97563.06
2023-10-26T23:53:32.197Z,97562.34
2023-10-26T23:55:59.294Z,97558.97
2023-10-26T23:58:25.921Z,97563.41
